sensor_id;sensor_type;location;lat;lon;timestamp;pressure;altitude;pressure_sealevel;temperature;humidity
56668;BME280;42542;48.360;10.958;2023-07-08T00:01:57;96335.03;;;18.59;49.30
56668;BME280;42542;48.360;10.958;2023-07-08T00:04:59;96331.94;;;18.56;49.58
56668;BME280;42542;48.360;10.958;2023-07-08T00:08:02;96333.34;;;18.52;49.86
56668;BME280;42542;48.360;10.958;2023-07-08T00:11:12;96334.81;;;18.48;50.24
56668;BME280;42542;48.360;10.958;2023-07-08T00:14:17;96325.66;;;18.42;50.43
56668;BME280;42542;48.360;10.958;2023-07-08T00:17:20;96335.03;;;18.40;50.77
56668;BME280;42542;48.360;10.958;2023-07-08T00:23:33;96323.78;;;18.29;51.44
56668;BME280;42542;48.360;10.958;2023-07-08T00:26:38;96324.41;;;18.25;51.55
56668;BME280;42542;48.360;10.958;2023-07-08T00:29:39;96316.47;;;18.17;52.23
56668;BME280;42542;48.360;10.958;2023-07-08T00:32:42;96320.00;;;18.17;52.26
56668;BME280;42542;48.360;10.958;2023-07-08T00:35:48;96319.63;;;18.14;52.63
56668;BME280;42542;48.360;10.958;2023-07-08T00:38:54;96321.47;;;18.13;52.79
56668;BME280;42542;48.360;10.958;2023-07-08T00:41:59;96315.63;;;18.10;53.31
56668;BME280;42542;48.360;10.958;2023-07-08T00:45:13;96306.91;;;18.08;53.53
56668;BME280;42542;48.360;10.958;2023-07-08T00:48:30;96310.66;;;18.07;54.17
56668;BME280;42542;48.360;10.958;2023-07-08T00:51:35;96311.88;;;18.04;53.77
56668;BME280;42542;48.360;10.958;2023-07-08T00:54:40;96307.72;;;18.02;54.20
56668;BME280;42542;48.360;10.958;2023-07-08T00:57:45;96315.22;;;18.00;54.43
56668;BME280;42542;48.360;10.958;2023-07-08T01:00:47;96306.66;;;17.96;54.29
56668;BME280;42542;48.360;10.958;2023-07-08T01:04:00;96316.84;;;17.94;54.93
56668;BME280;42542;48.360;10.958;2023-07-08T01:07:08;96318.94;;;17.92;54.75
56668;BME280;42542;48.360;10.958;2023-07-08T01:10:18;96319.34;;;17.89;55.12
56668;BME280;42542;48.360;10.958;2023-07-08T01:13:25;96312.69;;;17.85;54.83
56668;BME280;42542;48.360;10.958;2023-07-08T01:16:28;96315.81;;;17.82;54.75
56668;BME280;42542;48.360;10.958;2023-07-08T01:19:31;96314.31;;;17.79;55.11
56668;BME280;42542;48.360;10.958;2023-07-08T01:22:37;96320.16;;;17.76;55.41
56668;BME280;42542;48.360;10.958;2023-07-08T01:25:41;96317.25;;;17.71;55.60
56668;BME280;42542;48.360;10.958;2023-07-08T01:28:47;96316.59;;;17.69;55.98
56668;BME280;42542;48.360;10.958;2023-07-08T01:31:55;96320.53;;;17.67;56.67
56668;BME280;42542;48.360;10.958;2023-07-08T01:35:01;96326.38;;;17.64;56.96
56668;BME280;42542;48.360;10.958;2023-07-08T01:38:08;96315.91;;;17.61;57.34
56668;BME280;42542;48.360;10.958;2023-07-08T01:41:15;96316.94;;;17.60;57.43
56668;BME280;42542;48.360;10.958;2023-07-08T01:44:23;96313.84;;;17.56;57.57
56668;BME280;42542;48.360;10.958;2023-07-08T01:47:25;96311.72;;;17.51;57.66
56668;BME280;42542;48.360;10.958;2023-07-08T01:50:29;96317.34;;;17.50;57.83
56668;BME280;42542;48.360;10.958;2023-07-08T01:53:37;96315.03;;;17.47;58.27
56668;BME280;42542;48.360;10.958;2023-07-08T01:56:41;96316.25;;;17.44;58.48
56668;BME280;42542;48.360;10.958;2023-07-08T01:59:43;96311.47;;;17.40;59.01
56668;BME280;42542;48.360;10.958;2023-07-08T02:02:48;96319.97;;;17.37;58.78
56668;BME280;42542;48.360;10.958;2023-07-08T02:05:53;96314.34;;;17.32;59.38
56668;BME280;42542;48.360;10.958;2023-07-08T02:08:56;96319.13;;;17.30;59.41
56668;BME280;42542;48.360;10.958;2023-07-08T02:12:04;96316.00;;;17.26;59.64
56668;BME280;42542;48.360;10.958;2023-07-08T02:15:09;96308.28;;;17.23;59.71
56668;BME280;42542;48.360;10.958;2023-07-08T02:18:11;96308.69;;;17.20;59.94
56668;BME280;42542;48.360;10.958;2023-07-08T02:21:13;96299.13;;;17.17;60.09
56668;BME280;42542;48.360;10.958;2023-07-08T02:24:15;96296.63;;;17.16;60.60
56668;BME280;42542;48.360;10.958;2023-07-08T02:27:18;96292.84;;;17.10;60.92
56668;BME280;42542;48.360;10.958;2023-07-08T02:30:24;96289.31;;;17.10;60.69
56668;BME280;42542;48.360;10.958;2023-07-08T02:33:29;96296.78;;;17.08;61.08
56668;BME280;42542;48.360;10.958;2023-07-08T02:36:35;96298.88;;;17.06;61.15
56668;BME280;42542;48.360;10.958;2023-07-08T02:39:38;96296.56;;;17.03;61.18
56668;BME280;42542;48.360;10.958;2023-07-08T02:42:40;96294.88;;;17.02;61.52
56668;BME280;42542;48.360;10.958;2023-07-08T02:45:43;96301.53;;;16.99;61.56
56668;BME280;42542;48.360;10.958;2023-07-08T02:48:48;96302.38;;;17.00;61.81
56668;BME280;42542;48.360;10.958;2023-07-08T02:51:51;96301.91;;;16.96;61.99
56668;BME280;42542;48.360;10.958;2023-07-08T02:54:53;96292.34;;;16.94;62.12
56668;BME280;42542;48.360;10.958;2023-07-08T02:57:57;96290.47;;;16.94;62.51
56668;BME280;42542;48.360;10.958;2023-07-08T03:00:59;96296.09;;;16.93;62.87
56668;BME280;42542;48.360;10.958;2023-07-08T03:04:04;96298.81;;;16.93;63.38
56668;BME280;42542;48.360;10.958;2023-07-08T03:07:08;96290.06;;;16.91;63.42
56668;BME280;42542;48.360;10.958;2023-07-08T03:10:14;96298.34;;;16.89;63.22
56668;BME280;42542;48.360;10.958;2023-07-08T03:13:19;96300.41;;;16.87;62.90
56668;BME280;42542;48.360;10.958;2023-07-08T03:16:24;96308.72;;;16.86;63.21
56668;BME280;42542;48.360;10.958;2023-07-08T03:19:26;96312.25;;;16.86;63.19
56668;BME280;42542;48.360;10.958;2023-07-08T03:22:28;96315.16;;;16.85;63.29
56668;BME280;42542;48.360;10.958;2023-07-08T03:25:30;96318.69;;;16.85;63.38
56668;BME280;42542;48.360;10.958;2023-07-08T03:28:33;96324.28;;;16.84;64.46
56668;BME280;42542;48.360;10.958;2023-07-08T03:31:36;96313.50;;;16.84;64.09
56668;BME280;42542;48.360;10.958;2023-07-08T03:34:38;96309.75;;;16.85;64.02
56668;BME280;42542;48.360;10.958;2023-07-08T03:37:42;96311.44;;;16.86;64.14
56668;BME280;42542;48.360;10.958;2023-07-08T03:40:44;96321.19;;;16.87;64.40
56668;BME280;42542;48.360;10.958;2023-07-08T03:43:50;96322.84;;;16.88;64.83
56668;BME280;42542;48.360;10.958;2023-07-08T03:46:54;96314.75;;;16.88;65.06
56668;BME280;42542;48.360;10.958;2023-07-08T03:49:57;96322.84;;;16.88;64.98
56668;BME280;42542;48.360;10.958;2023-07-08T03:53:00;96340.53;;;16.90;65.25
56668;BME280;42542;48.360;10.958;2023-07-08T03:56:10;96353.00;;;16.91;65.55
56668;BME280;42542;48.360;10.958;2023-07-08T03:59:18;96366.09;;;16.94;65.08
56668;BME280;42542;48.360;10.958;2023-07-08T04:02:21;96379.22;;;16.97;64.77
56668;BME280;42542;48.360;10.958;2023-07-08T04:05:24;96386.91;;;17.00;64.69
56668;BME280;42542;48.360;10.958;2023-07-08T04:08:26;96400.66;;;17.05;64.84
56668;BME280;42542;48.360;10.958;2023-07-08T04:11:30;96413.13;;;17.06;64.71
56668;BME280;42542;48.360;10.958;2023-07-08T04:14:32;96413.38;;;17.11;64.31
56668;BME280;42542;48.360;10.958;2023-07-08T04:17:36;96406.09;;;17.12;63.77
56668;BME280;42542;48.360;10.958;2023-07-08T04:20:40;96408.84;;;17.18;63.25
56668;BME280;42542;48.360;10.958;2023-07-08T04:24:03;96409.06;;;17.24;62.99
56668;BME280;42542;48.360;10.958;2023-07-08T04:27:05;96418.06;;;17.31;62.39
56668;BME280;42542;48.360;10.958;2023-07-08T04:30:27;96421.63;;;17.38;63.44
56668;BME280;42542;48.360;10.958;2023-07-08T04:33:30;96401.91;;;17.44;63.10
56668;BME280;42542;48.360;10.958;2023-07-08T04:36:33;96404.88;;;17.49;62.81
56668;BME280;42542;48.360;10.958;2023-07-08T04:39:37;96391.38;;;17.55;63.64
56668;BME280;42542;48.360;10.958;2023-07-08T04:42:38;96396.00;;;17.62;63.74
56668;BME280;42542;48.360;10.958;2023-07-08T04:45:43;96392.31;;;17.69;63.45
56668;BME280;42542;48.360;10.958;2023-07-08T04:48:46;96396.06;;;17.75;62.70
56668;BME280;42542;48.360;10.958;2023-07-08T04:51:53;96384.44;;;17.81;63.32
56668;BME280;42542;48.360;10.958;2023-07-08T04:54:56;96389.88;;;17.87;63.49
56668;BME280;42542;48.360;10.958;2023-07-08T04:57:59;96388.84;;;17.95;63.91
56668;BME280;42542;48.360;10.958;2023-07-08T05:01:04;96384.09;;;18.04;63.28
56668;BME280;42542;48.360;10.958;2023-07-08T05:04:07;96371.22;;;18.12;63.23
56668;BME280;42542;48.360;10.958;2023-07-08T05:07:09;96358.53;;;18.19;64.00
56668;BME280;42542;48.360;10.958;2023-07-08T05:10:12;96350.03;;;18.29;64.83
56668;BME280;42542;48.360;10.958;2023-07-08T05:13:17;96345.22;;;18.38;63.89
56668;BME280;42542;48.360;10.958;2023-07-08T05:16:20;96362.09;;;18.46;63.88
56668;BME280;42542;48.360;10.958;2023-07-08T05:19:21;96358.53;;;18.52;63.20
56668;BME280;42542;48.360;10.958;2023-07-08T05:22:24;96351.09;;;18.61;63.15
56668;BME280;42542;48.360;10.958;2023-07-08T05:25:32;96345.47;;;18.69;62.20
56668;BME280;42542;48.360;10.958;2023-07-08T05:28:35;96335.47;;;18.76;62.06
56668;BME280;42542;48.360;10.958;2023-07-08T05:31:37;96339.19;;;18.82;62.18
56668;BME280;42542;48.360;10.958;2023-07-08T05:34:50;96333.78;;;18.88;61.90
56668;BME280;42542;48.360;10.958;2023-07-08T05:37:52;96326.47;;;18.95;61.57
56668;BME280;42542;48.360;10.958;2023-07-08T05:40:58;96330.44;;;18.99;61.94
56668;BME280;42542;48.360;10.958;2023-07-08T05:44:01;96326.25;;;19.03;61.48
56668;BME280;42542;48.360;10.958;2023-07-08T05:47:04;96323.97;;;19.07;61.66
56668;BME280;42542;48.360;10.958;2023-07-08T05:50:07;96324.16;;;19.12;62.18
56668;BME280;42542;48.360;10.958;2023-07-08T05:53:17;96316.44;;;19.16;61.85
56668;BME280;42542;48.360;10.958;2023-07-08T05:56:21;96317.28;;;19.16;61.38
56668;BME280;42542;48.360;10.958;2023-07-08T05:59:25;96314.31;;;19.18;61.29
56668;BME280;42542;48.360;10.958;2023-07-08T06:02:27;96319.50;;;19.26;62.06
56668;BME280;42542;48.360;10.958;2023-07-08T06:05:33;96337.88;;;19.30;61.40
56668;BME280;42542;48.360;10.958;2023-07-08T06:08:35;96348.06;;;19.35;60.74
56668;BME280;42542;48.360;10.958;2023-07-08T06:11:38;96356.16;;;19.41;60.64
56668;BME280;42542;48.360;10.958;2023-07-08T06:14:40;96349.91;;;19.41;59.68
56668;BME280;42542;48.360;10.958;2023-07-08T06:17:42;96361.59;;;19.48;59.45
56668;BME280;42542;48.360;10.958;2023-07-08T06:20:57;96350.94;;;19.53;59.30
56668;BME280;42542;48.360;10.958;2023-07-08T06:24:03;96365.91;;;19.62;59.44
56668;BME280;42542;48.360;10.958;2023-07-08T06:27:06;96368.59;;;19.69;58.24
56668;BME280;42542;48.360;10.958;2023-07-08T06:30:08;96369.63;;;19.74;57.63
56668;BME280;42542;48.360;10.958;2023-07-08T06:33:11;96363.34;;;19.80;57.55
56668;BME280;42542;48.360;10.958;2023-07-08T06:36:13;96373.34;;;19.86;57.61
56668;BME280;42542;48.360;10.958;2023-07-08T06:39:17;96374.72;;;19.96;57.15
56668;BME280;42542;48.360;10.958;2023-07-08T06:42:22;96376.16;;;20.05;57.31
56668;BME280;42542;48.360;10.958;2023-07-08T06:45:45;96379.03;;;20.16;57.78
56668;BME280;42542;48.360;10.958;2023-07-08T06:48:47;96373.72;;;20.28;57.35
56668;BME280;42542;48.360;10.958;2023-07-08T06:51:51;96380.81;;;20.36;56.83
56668;BME280;42542;48.360;10.958;2023-07-08T06:54:53;96390.78;;;20.42;56.71
56668;BME280;42542;48.360;10.958;2023-07-08T06:57:58;96391.16;;;20.52;56.96
56668;BME280;42542;48.360;10.958;2023-07-08T07:01:02;96394.41;;;20.60;56.83
56668;BME280;42542;48.360;10.958;2023-07-08T07:04:04;96393.75;;;20.65;56.37
56668;BME280;42542;48.360;10.958;2023-07-08T07:07:07;96405.19;;;20.74;57.02
56668;BME280;42542;48.360;10.958;2023-07-08T07:10:09;96415.78;;;20.82;56.99
56668;BME280;42542;48.360;10.958;2023-07-08T07:13:11;96416.56;;;20.89;57.15
56668;BME280;42542;48.360;10.958;2023-07-08T07:16:14;96431.75;;;20.96;56.90
56668;BME280;42542;48.360;10.958;2023-07-08T07:19:17;96437.38;;;21.01;56.68
56668;BME280;42542;48.360;10.958;2023-07-08T07:22:18;96428.75;;;21.04;56.92
56668;BME280;42542;48.360;10.958;2023-07-08T07:25:22;96429.53;;;21.12;57.19
56668;BME280;42542;48.360;10.958;2023-07-08T07:28:24;96436.59;;;21.19;56.80
56668;BME280;42542;48.360;10.958;2023-07-08T07:31:29;96444.69;;;21.26;56.80
56668;BME280;42542;48.360;10.958;2023-07-08T07:34:32;96449.03;;;21.33;56.93
56668;BME280;42542;48.360;10.958;2023-07-08T07:37:35;96438.53;;;21.37;55.94
56668;BME280;42542;48.360;10.958;2023-07-08T07:40:39;96440.44;;;21.36;55.38
56668;BME280;42542;48.360;10.958;2023-07-08T07:43:42;96450.47;;;21.36;54.93
56668;BME280;42542;48.360;10.958;2023-07-08T07:46:45;96451.31;;;21.36;54.94
56668;BME280;42542;48.360;10.958;2023-07-08T07:49:49;96461.13;;;21.37;54.53
56668;BME280;42542;48.360;10.958;2023-07-08T07:52:52;96456.34;;;21.33;54.65
56668;BME280;42542;48.360;10.958;2023-07-08T07:56:00;96463.09;;;21.30;53.48
56668;BME280;42542;48.360;10.958;2023-07-08T07:59:04;96466.63;;;21.31;52.73
56668;BME280;42542;48.360;10.958;2023-07-08T08:02:07;96471.59;;;21.34;51.66
56668;BME280;42542;48.360;10.958;2023-07-08T08:05:10;96462.41;;;21.35;51.24
56668;BME280;42542;48.360;10.958;2023-07-08T08:08:13;96450.41;;;21.42;51.45
56668;BME280;42542;48.360;10.958;2023-07-08T08:11:16;96445.50;;;21.51;50.83
56668;BME280;42542;48.360;10.958;2023-07-08T08:14:19;96452.34;;;21.60;50.52
56668;BME280;42542;48.360;10.958;2023-07-08T08:17:24;96443.03;;;21.68;50.16
56668;BME280;42542;48.360;10.958;2023-07-08T08:20:28;96456.56;;;21.74;50.03
56668;BME280;42542;48.360;10.958;2023-07-08T08:23:30;96455.66;;;21.80;50.67
56668;BME280;42542;48.360;10.958;2023-07-08T08:26:36;96469.50;;;21.97;50.20
56668;BME280;42542;48.360;10.958;2023-07-08T08:29:38;96466.50;;;22.05;49.93
56668;BME280;42542;48.360;10.958;2023-07-08T08:32:40;96476.84;;;22.15;49.96
56668;BME280;42542;48.360;10.958;2023-07-08T08:35:44;96468.16;;;22.25;49.43
56668;BME280;42542;48.360;10.958;2023-07-08T08:38:46;96465.34;;;22.31;49.10
56668;BME280;42542;48.360;10.958;2023-07-08T08:41:49;96468.59;;;22.40;49.56
56668;BME280;42542;48.360;10.958;2023-07-08T08:44:56;96470.91;;;22.54;49.25
56668;BME280;42542;48.360;10.958;2023-07-08T08:48:03;96473.66;;;22.66;48.67
56668;BME280;42542;48.360;10.958;2023-07-08T08:51:13;96463.44;;;22.80;48.40
56668;BME280;42542;48.360;10.958;2023-07-08T08:54:16;96467.84;;;22.92;48.26
56668;BME280;42542;48.360;10.958;2023-07-08T09:01:04;96465.78;;;23.18;47.48
56668;BME280;42542;48.360;10.958;2023-07-08T09:04:19;96461.03;;;23.25;47.05
56668;BME280;42542;48.360;10.958;2023-07-08T09:07:23;96465.09;;;23.34;46.89
56668;BME280;42542;48.360;10.958;2023-07-08T09:10:55;96465.56;;;23.43;46.15
56668;BME280;42542;48.360;10.958;2023-07-08T09:13:58;96474.84;;;23.53;46.57
56668;BME280;42542;48.360;10.958;2023-07-08T09:20:39;96456.69;;;23.70;45.83
56668;BME280;42542;48.360;10.958;2023-07-08T09:23:44;96453.59;;;23.79;45.35
56668;BME280;42542;48.360;10.958;2023-07-08T09:26:50;96455.34;;;23.85;45.33
56668;BME280;42542;48.360;10.958;2023-07-08T09:29:55;96454.16;;;23.92;45.62
56668;BME280;42542;48.360;10.958;2023-07-08T09:32:58;96457.34;;;24.01;45.44
56668;BME280;42542;48.360;10.958;2023-07-08T09:36:16;96454.84;;;24.11;44.03
56668;BME280;42542;48.360;10.958;2023-07-08T09:39:23;96463.75;;;24.18;44.68
56668;BME280;42542;48.360;10.958;2023-07-08T09:42:48;96465.53;;;24.24;43.84
56668;BME280;42542;48.360;10.958;2023-07-08T09:45:51;96468.59;;;24.28;44.14
56668;BME280;42542;48.360;10.958;2023-07-08T09:48:56;96474.19;;;24.33;44.60
56668;BME280;42542;48.360;10.958;2023-07-08T09:51:57;96477.84;;;24.38;44.28
56668;BME280;42542;48.360;10.958;2023-07-08T09:55:01;96487.81;;;24.44;44.32
56668;BME280;42542;48.360;10.958;2023-07-08T09:58:05;96490.31;;;24.46;44.38
56668;BME280;42542;48.360;10.958;2023-07-08T10:01:17;96499.78;;;24.55;44.23
56668;BME280;42542;48.360;10.958;2023-07-08T10:04:21;96489.94;;;24.54;43.94
56668;BME280;42542;48.360;10.958;2023-07-08T10:07:28;96486.44;;;24.59;44.19
56668;BME280;42542;48.360;10.958;2023-07-08T10:10:37;96498.22;;;24.59;44.32
56668;BME280;42542;48.360;10.958;2023-07-08T10:13:48;96491.31;;;24.57;43.81
56668;BME280;42542;48.360;10.958;2023-07-08T10:17:16;96485.38;;;24.60;44.41
56668;BME280;42542;48.360;10.958;2023-07-08T10:20:19;96485.47;;;24.65;44.06
56668;BME280;42542;48.360;10.958;2023-07-08T10:23:43;96484.53;;;24.71;44.11
56668;BME280;42542;48.360;10.958;2023-07-08T10:27:00;96482.06;;;24.86;44.54
56668;BME280;42542;48.360;10.958;2023-07-08T10:40:49;96488.88;;;25.28;43.94
56668;BME280;42542;48.360;10.958;2023-07-08T10:58:12;96482.06;;;25.81;42.06
56668;BME280;42542;48.360;10.958;2023-07-08T11:08:55;96486.34;;;25.94;41.85
56668;BME280;42542;48.360;10.958;2023-07-08T11:22:18;96465.91;;;26.01;41.08
56668;BME280;42542;48.360;10.958;2023-07-08T11:25:25;96471.16;;;26.03;41.01
56668;BME280;42542;48.360;10.958;2023-07-08T11:28:32;96472.56;;;26.05;40.97
56668;BME280;42542;48.360;10.958;2023-07-08T11:31:35;96470.22;;;26.14;41.14
56668;BME280;42542;48.360;10.958;2023-07-08T11:34:38;96461.22;;;26.19;40.63
56668;BME280;42542;48.360;10.958;2023-07-08T11:37:42;96461.06;;;26.25;40.78
56668;BME280;42542;48.360;10.958;2023-07-08T11:41:14;96460.69;;;26.38;40.09
56668;BME280;42542;48.360;10.958;2023-07-08T11:44:17;96451.44;;;26.44;40.58
56668;BME280;42542;48.360;10.958;2023-07-08T11:47:41;96445.75;;;26.51;39.72
56668;BME280;42542;48.360;10.958;2023-07-08T11:50:49;96452.97;;;26.57;40.16
56668;BME280;42542;48.360;10.958;2023-07-08T11:54:11;96446.50;;;26.68;39.94
56668;BME280;42542;48.360;10.958;2023-07-08T11:57:24;96449.91;;;26.80;39.73
56668;BME280;42542;48.360;10.958;2023-07-08T12:00:32;96445.66;;;26.90;38.96
56668;BME280;42542;48.360;10.958;2023-07-08T12:07:16;96435.03;;;26.98;38.34
56668;BME280;42542;48.360;10.958;2023-07-08T12:10:28;96429.34;;;27.05;38.74
56668;BME280;42542;48.360;10.958;2023-07-08T12:13:33;96432.47;;;27.18;38.44
56668;BME280;42542;48.360;10.958;2023-07-08T12:16:35;96434.78;;;27.32;37.52
56668;BME280;42542;48.360;10.958;2023-07-08T12:19:37;96428.28;;;27.43;37.04
56668;BME280;42542;48.360;10.958;2023-07-08T12:22:43;96425.16;;;27.61;37.13
56668;BME280;42542;48.360;10.958;2023-07-08T12:25:46;96429.06;;;27.70;36.16
56668;BME280;42542;48.360;10.958;2023-07-08T12:28:49;96421.41;;;27.77;36.08
56668;BME280;42542;48.360;10.958;2023-07-08T12:31:51;96415.44;;;27.90;36.05
56668;BME280;42542;48.360;10.958;2023-07-08T12:34:54;96415.53;;;28.11;36.17
56668;BME280;42542;48.360;10.958;2023-07-08T12:38:02;96414.28;;;28.33;34.90
56668;BME280;42542;48.360;10.958;2023-07-08T12:41:20;96413.78;;;28.47;34.27
56668;BME280;42542;48.360;10.958;2023-07-08T12:44:41;96425.41;;;28.64;34.55
56668;BME280;42542;48.360;10.958;2023-07-08T12:47:46;96412.81;;;28.78;34.39
56668;BME280;42542;48.360;10.958;2023-07-08T12:50:48;96421.38;;;29.02;33.81
56668;BME280;42542;48.360;10.958;2023-07-08T12:53:53;96423.84;;;29.19;33.30
56668;BME280;42542;48.360;10.958;2023-07-08T12:56:56;96425.00;;;29.38;33.39
56668;BME280;42542;48.360;10.958;2023-07-08T13:00:01;96420.84;;;29.66;33.04
56668;BME280;42542;48.360;10.958;2023-07-08T13:03:15;96422.19;;;29.88;31.51
56668;BME280;42542;48.360;10.958;2023-07-08T13:06:21;96420.81;;;30.01;31.41
56668;BME280;42542;48.360;10.958;2023-07-08T13:09:33;96414.97;;;30.13;31.11
56668;BME280;42542;48.360;10.958;2023-07-08T13:12:40;96419.38;;;30.14;30.26
56668;BME280;42542;48.360;10.958;2023-07-08T13:15:42;96421.84;;;30.15;30.31
56668;BME280;42542;48.360;10.958;2023-07-08T13:18:45;96422.09;;;30.24;29.82
56668;BME280;42542;48.360;10.958;2023-07-08T13:21:47;96424.25;;;30.37;30.65
56668;BME280;42542;48.360;10.958;2023-07-08T13:25:00;96420.88;;;30.60;30.42
56668;BME280;42542;48.360;10.958;2023-07-08T13:31:33;96419.97;;;31.19;30.10
56668;BME280;42542;48.360;10.958;2023-07-08T13:34:36;96413.94;;;31.46;29.17
56668;BME280;42542;48.360;10.958;2023-07-08T13:37:39;96421.78;;;31.68;28.69
56668;BME280;42542;48.360;10.958;2023-07-08T13:40:47;96421.53;;;31.93;28.62
56668;BME280;42542;48.360;10.958;2023-07-08T13:43:51;96423.16;;;32.23;28.57
56668;BME280;42542;48.360;10.958;2023-07-08T13:46:57;96423.28;;;32.37;27.14
56668;BME280;42542;48.360;10.958;2023-07-08T13:50:23;96417.00;;;32.50;26.37
56668;BME280;42542;48.360;10.958;2023-07-08T13:56:50;96412.66;;;32.86;26.58
56668;BME280;42542;48.360;10.958;2023-07-08T13:59:53;96416.34;;;33.01;26.33
56668;BME280;42542;48.360;10.958;2023-07-08T14:03:13;96407.38;;;33.27;26.23
56668;BME280;42542;48.360;10.958;2023-07-08T14:06:22;96408.38;;;33.50;25.82
56668;BME280;42542;48.360;10.958;2023-07-08T14:09:25;96412.50;;;33.72;25.65
56668;BME280;42542;48.360;10.958;2023-07-08T14:12:28;96403.25;;;33.90;24.84
56668;BME280;42542;48.360;10.958;2023-07-08T14:15:30;96401.84;;;34.06;24.94
56668;BME280;42542;48.360;10.958;2023-07-08T14:18:35;96401.16;;;34.28;24.80
56668;BME280;42542;48.360;10.958;2023-07-08T14:21:38;96383.56;;;34.46;24.31
56668;BME280;42542;48.360;10.958;2023-07-08T14:24:41;96386.31;;;34.60;24.29
56668;BME280;42542;48.360;10.958;2023-07-08T14:27:48;96390.84;;;34.83;24.18
56668;BME280;42542;48.360;10.958;2023-07-08T14:30:51;96393.03;;;35.08;24.47
56668;BME280;42542;48.360;10.958;2023-07-08T14:34:05;96385.53;;;35.31;24.01
56668;BME280;42542;48.360;10.958;2023-07-08T14:37:13;96383.06;;;35.52;23.63
56668;BME280;42542;48.360;10.958;2023-07-08T14:40:31;96390.44;;;35.70;23.18
56668;BME280;42542;48.360;10.958;2023-07-08T14:43:36;96378.34;;;35.75;23.09
56668;BME280;42542;48.360;10.958;2023-07-08T14:46:42;96380.03;;;35.84;23.28
56668;BME280;42542;48.360;10.958;2023-07-08T14:49:45;96378.34;;;36.06;23.43
56668;BME280;42542;48.360;10.958;2023-07-08T14:52:48;96375.88;;;36.04;22.30
56668;BME280;42542;48.360;10.958;2023-07-08T14:55:52;96383.53;;;35.98;22.61
56668;BME280;42542;48.360;10.958;2023-07-08T14:58:55;96377.72;;;36.09;22.49
56668;BME280;42542;48.360;10.958;2023-07-08T15:02:14;96375.97;;;36.21;21.87
56668;BME280;42542;48.360;10.958;2023-07-08T15:05:26;96370.59;;;36.33;22.20
56668;BME280;42542;48.360;10.958;2023-07-08T15:08:30;96373.56;;;36.37;22.41
56668;BME280;42542;48.360;10.958;2023-07-08T15:11:38;96373.72;;;36.41;22.33
56668;BME280;42542;48.360;10.958;2023-07-08T15:14:41;96363.25;;;36.46;21.89
56668;BME280;42542;48.360;10.958;2023-07-08T15:17:47;96364.28;;;36.50;21.96
56668;BME280;42542;48.360;10.958;2023-07-08T15:20:50;96362.81;;;36.61;21.67
56668;BME280;42542;48.360;10.958;2023-07-08T15:23:53;96360.06;;;36.70;21.61
56668;BME280;42542;48.360;10.958;2023-07-08T15:26:58;96354.34;;;36.66;20.91
56668;BME280;42542;48.360;10.958;2023-07-08T15:30:02;96357.38;;;36.48;21.40
56668;BME280;42542;48.360;10.958;2023-07-08T15:33:08;96358.78;;;36.19;21.34
56668;BME280;42542;48.360;10.958;2023-07-08T15:36:11;96361.63;;;36.06;21.70
56668;BME280;42542;48.360;10.958;2023-07-08T15:39:15;96364.09;;;36.07;21.84
56668;BME280;42542;48.360;10.958;2023-07-08T15:42:19;96354.09;;;36.06;21.41
56668;BME280;42542;48.360;10.958;2023-07-08T15:45:29;96363.78;;;36.17;21.70
56668;BME280;42542;48.360;10.958;2023-07-08T15:48:32;96357.00;;;36.32;21.81
56668;BME280;42542;48.360;10.958;2023-07-08T15:51:35;96357.50;;;36.34;21.47
56668;BME280;42542;48.360;10.958;2023-07-08T15:54:37;96360.28;;;36.34;21.55
56668;BME280;42542;48.360;10.958;2023-07-08T15:57:46;96357.81;;;36.32;21.30
56668;BME280;42542;48.360;10.958;2023-07-08T16:00:53;96357.31;;;36.22;21.78
56668;BME280;42542;48.360;10.958;2023-07-08T16:03:56;96354.94;;;36.07;21.45
56668;BME280;42542;48.360;10.958;2023-07-08T16:07:02;96358.28;;;35.86;21.40
56668;BME280;42542;48.360;10.958;2023-07-08T16:10:05;96349.13;;;35.63;21.35
56668;BME280;42542;48.360;10.958;2023-07-08T16:13:09;96350.81;;;35.42;21.76
56668;BME280;42542;48.360;10.958;2023-07-08T16:16:13;96353.50;;;35.11;21.83
56668;BME280;42542;48.360;10.958;2023-07-08T16:19:15;96350.00;;;34.83;22.50
56668;BME280;42542;48.360;10.958;2023-07-08T16:22:18;96346.56;;;34.51;22.21
56668;BME280;42542;48.360;10.958;2023-07-08T16:25:30;96349.03;;;34.25;22.69
56668;BME280;42542;48.360;10.958;2023-07-08T16:28:44;96335.69;;;33.99;23.47
56668;BME280;42542;48.360;10.958;2023-07-08T16:31:48;96345.59;;;33.73;23.47
56668;BME280;42542;48.360;10.958;2023-07-08T16:34:51;96344.00;;;33.53;23.64
56668;BME280;42542;48.360;10.958;2023-07-08T16:37:53;96347.25;;;33.28;23.63
56668;BME280;42542;48.360;10.958;2023-07-08T16:40:59;96358.75;;;33.16;24.23
56668;BME280;42542;48.360;10.958;2023-07-08T16:44:03;96356.59;;;33.13;24.52
56668;BME280;42542;48.360;10.958;2023-07-08T16:47:11;96352.25;;;33.07;24.65
56668;BME280;42542;48.360;10.958;2023-07-08T16:50:17;96349.94;;;32.95;24.65
56668;BME280;42542;48.360;10.958;2023-07-08T16:53:24;96350.41;;;32.84;25.07
56668;BME280;42542;48.360;10.958;2023-07-08T16:56:25;96350.81;;;32.77;25.70
56668;BME280;42542;48.360;10.958;2023-07-08T16:59:27;96337.66;;;32.64;27.42
56668;BME280;42542;48.360;10.958;2023-07-08T17:02:32;96343.28;;;32.40;26.31
56668;BME280;42542;48.360;10.958;2023-07-08T17:05:36;96347.66;;;32.23;26.39
56668;BME280;42542;48.360;10.958;2023-07-08T17:08:40;96342.56;;;32.06;26.28
56668;BME280;42542;48.360;10.958;2023-07-08T17:11:42;96339.94;;;31.96;27.64
56668;BME280;42542;48.360;10.958;2023-07-08T17:14:44;96337.59;;;31.84;28.33